CheckWX is a tool to help pilots better visualize weather data.  It is not intended as a substitute for an official pre-flight weather briefing.

20:05:57 UTC

KCQT METAR
Los Angeles / USC Campus Downtown Airport
Los Angeles, California, USA
Current

1 hour ago

KCQT 161852Z AUTO 00000KT 10SM CLR 20/06 A3010 RMK AO2 SLP192 T02000056
Observed
Feb-16 @ 18:52 UTC
Visibility
10 SM
Flight Rules
VFR
Cloud Levels
  • Clear skies
Temperature
20°C / 68°F
Dewpoint
C / 43°F
Humidity
40%
Altimeter
30.1" Hg
Pressure
1019.32 hPa
Previous

2 hours ago

KCQT 161752Z AUTO 00000KT 9SM CLR 18/07 A3013 RMK AO2 SLP201 T01780072 10178 20106 58007
Observed
Feb-16 @ 17:52 UTC
Visibility
9 SM
Flight Rules
VFR
Cloud Levels
  • Clear skies
Temperature
18°C / 64°F
Dewpoint
C / 45°F
Humidity
49%
Altimeter
30.13" Hg
Pressure
1020.32 hPa
Previous

3 hours ago

KCQT 161652Z AUTO 00000KT 6SM HZ CLR 16/08 A3015 RMK AO2 SLP208 T01560078
Observed
Feb-16 @ 16:52 UTC
Visibility
6 SM
Flight Rules
VFR
Conditions
Haze
Cloud Levels
  • Clear skies
Temperature
16°C / 61°F
Dewpoint
C / 46°F
Humidity
59%
Altimeter
30.15" Hg
Pressure
1021.02 hPa